createdAt,value
2022-09-21T00:01:13.650Z,1.13
2022-09-21T00:03:43.663Z,1.30
2022-09-21T00:06:13.560Z,1.20
2022-09-21T00:08:40.345Z,1.10
2022-09-21T00:11:08.684Z,1.30
2022-09-21T00:13:37.789Z,1.20
2022-09-21T00:16:08.023Z,1.30
2022-09-21T00:18:35.659Z,1.23
2022-09-21T00:21:07.147Z,1.20
2022-09-21T00:23:36.098Z,1.20
2022-09-21T00:26:22.676Z,1.30
2022-09-21T00:28:54.591Z,1.00
2022-09-21T00:31:21.837Z,1.17
2022-09-21T00:33:48.988Z,1.10
2022-09-21T00:36:17.707Z,1.17
2022-09-21T00:38:46.097Z,1.10
2022-09-21T00:41:13.582Z,1.20
2022-09-21T00:43:47.237Z,1.20
2022-09-21T00:46:28.148Z,1.17
2022-09-21T00:48:54.828Z,1.07
2022-09-21T00:51:21.654Z,1.20
2022-09-21T00:53:51.884Z,1.20
2022-09-21T00:56:20.252Z,1.20
2022-09-21T00:58:48.444Z,1.47
2022-09-21T01:01:18.735Z,1.10
2022-09-21T01:03:49.477Z,1.20
2022-09-21T01:06:18.654Z,1.20
2022-09-21T01:08:47.413Z,1.20
2022-09-21T01:11:50.782Z,1.07
2022-09-21T01:14:31.478Z,1.20
2022-09-21T01:17:09.490Z,1.00
2022-09-21T01:20:00.988Z,1.10
2022-09-21T01:22:30.451Z,1.10
2022-09-21T01:25:12.090Z,1.13
2022-09-21T01:27:52.108Z,1.10
2022-09-21T01:30:20.618Z,1.10
2022-09-21T01:33:03.445Z,1.07
2022-09-21T01:35:39.991Z,1.00
2022-09-21T01:38:14.070Z,1.20
2022-09-21T01:40:44.070Z,1.30
2022-09-21T01:43:14.313Z,1.20
2022-09-21T01:45:45.694Z,1.20
2022-09-21T01:48:13.786Z,1.40
2022-09-21T01:50:46.945Z,1.10
2022-09-21T01:53:18.750Z,1.10
2022-09-21T01:55:55.608Z,1.10
2022-09-21T01:58:34.170Z,1.30
2022-09-21T02:01:01.277Z,1.30
2022-09-21T02:03:37.308Z,1.13
2022-09-21T02:06:04.982Z,1.10
2022-09-21T02:08:32.370Z,1.23
2022-09-21T02:11:00.929Z,1.30
2022-09-21T02:13:32.226Z,1.40
2022-09-21T02:16:08.293Z,1.30
2022-09-21T02:18:57.408Z,1.37
2022-09-21T02:21:40.784Z,1.20
2022-09-21T02:24:25.955Z,1.30
2022-09-21T02:27:04.307Z,1.20
2022-09-21T02:29:49.975Z,1.20
2022-09-21T02:32:35.210Z,1.20
2022-09-21T02:35:22.573Z,1.90
2022-09-21T02:37:56.903Z,2.10
2022-09-21T02:40:31.482Z,2.20
2022-09-21T02:43:02.479Z,1.50
2022-09-21T02:45:34.316Z,1.40
2022-09-21T02:48:17.005Z,1.43
2022-09-21T02:51:10.410Z,1.30
2022-09-21T02:53:38.758Z,1.20
2022-09-21T02:56:07.334Z,1.40
2022-09-21T02:58:41.345Z,1.10
2022-09-21T03:01:11.157Z,1.20
2022-09-21T03:03:38.133Z,1.30
2022-09-21T03:06:05.068Z,1.10
2022-09-21T03:08:31.623Z,1.20
2022-09-21T03:10:58.289Z,1.13
2022-09-21T03:13:25.303Z,1.30
2022-09-21T03:16:01.674Z,1.20
2022-09-21T03:18:28.954Z,1.30
2022-09-21T03:20:55.528Z,1.30
2022-09-21T03:23:22.164Z,1.40
2022-09-21T03:25:50.095Z,1.60
2022-09-21T03:28:16.727Z,1.50
2022-09-21T03:30:44.927Z,1.20
2022-09-21T03:33:12.831Z,1.40
2022-09-21T03:35:39.634Z,1.30
2022-09-21T03:38:06.215Z,1.30
2022-09-21T03:40:33.143Z,1.30
2022-09-21T03:42:59.857Z,1.60
2022-09-21T03:45:27.446Z,1.40
2022-09-21T03:47:58.427Z,1.37
2022-09-21T03:50:26.529Z,1.60
2022-09-21T03:52:53.231Z,1.50
2022-09-21T03:55:19.906Z,1.20
2022-09-21T03:57:46.577Z,1.30
2022-09-21T04:00:13.942Z,1.50
2022-09-21T04:02:40.767Z,1.40
2022-09-21T04:05:09.290Z,1.37
2022-09-21T04:07:36.411Z,1.37
2022-09-21T04:10:08.124Z,1.50
2022-09-21T04:12:36.383Z,1.40
2022-09-21T04:15:05.171Z,1.33
2022-09-21T04:17:31.830Z,1.27
2022-09-21T04:19:58.437Z,1.30
2022-09-21T04:22:25.585Z,1.50
2022-09-21T04:24:52.254Z,1.30
2022-09-21T04:27:18.935Z,1.30
2022-09-21T04:29:45.651Z,1.60
2022-09-21T04:32:12.221Z,1.43
2022-09-21T04:34:39.518Z,1.50
2022-09-21T04:37:10.770Z,1.30
2022-09-21T04:39:37.715Z,1.70
2022-09-21T04:42:04.816Z,1.60
2022-09-21T04:44:31.443Z,1.47
2022-09-21T04:46:58.377Z,1.43
2022-09-21T04:49:25.074Z,2.27
2022-09-21T04:51:52.091Z,1.60
2022-09-21T04:54:18.635Z,1.50
2022-09-21T04:56:45.253Z,1.53
2022-09-21T04:59:11.935Z,1.80
2022-09-21T05:01:38.620Z,1.70
2022-09-21T05:04:05.750Z,2.00
2022-09-21T05:06:33.737Z,1.70
2022-09-21T05:09:19.521Z,2.00
2022-09-21T05:11:46.379Z,1.83
2022-09-21T05:14:13.085Z,1.80
2022-09-21T05:16:39.723Z,1.90
2022-09-21T05:19:06.604Z,1.93
2022-09-21T05:21:33.324Z,1.70
2022-09-21T05:23:59.899Z,1.83
2022-09-21T05:26:26.467Z,2.10
2022-09-21T05:28:53.343Z,2.00
2022-09-21T05:31:30.989Z,2.07
2022-09-21T05:33:57.595Z,1.93
2022-09-21T05:36:32.946Z,2.30
2022-09-21T05:39:00.422Z,2.20
2022-09-21T05:41:27.347Z,2.20
2022-09-21T05:43:54.254Z,2.50
2022-09-21T05:46:56.235Z,2.37
2022-09-21T05:49:29.877Z,2.13
2022-09-21T05:52:02.461Z,2.17
2022-09-21T05:54:47.240Z,2.30
2022-09-21T05:57:15.574Z,2.03
2022-09-21T05:59:59.457Z,2.43
2022-09-21T06:02:47.539Z,2.20
2022-09-21T06:05:15.195Z,2.00
2022-09-21T06:07:41.995Z,1.77
2022-09-21T06:10:10.075Z,2.10
2022-09-21T06:12:36.605Z,2.10
2022-09-21T06:15:04.290Z,2.30
2022-09-21T06:17:32.557Z,2.10
2022-09-21T06:19:59.387Z,2.37
2022-09-21T06:22:25.973Z,2.10
2022-09-21T06:24:52.519Z,2.00
2022-09-21T06:27:19.052Z,2.00
2022-09-21T06:29:45.625Z,1.77
2022-09-21T06:32:12.454Z,2.00
2022-09-21T06:34:39.045Z,1.80
2022-09-21T06:37:05.626Z,1.90
2022-09-21T06:39:32.237Z,2.37
2022-09-21T06:41:59.471Z,1.80
2022-09-21T06:44:26.385Z,2.10
2022-09-21T06:46:52.929Z,2.10
2022-09-21T06:49:19.493Z,2.10
2022-09-21T06:51:47.921Z,1.90
2022-09-21T06:54:14.823Z,2.07
2022-09-21T06:56:43.255Z,1.73
2022-09-21T06:59:09.845Z,2.20
2022-09-21T07:01:36.616Z,1.90
2022-09-21T07:04:03.270Z,1.80
2022-09-21T07:06:30.080Z,2.03
2022-09-21T07:11:43.275Z,2.10
2022-09-21T07:14:09.805Z,1.80
2022-09-21T07:16:37.091Z,1.77
2022-09-21T07:19:10.989Z,1.70
2022-09-21T07:21:38.180Z,1.60
2022-09-21T07:24:09.575Z,1.80
2022-09-21T07:26:38.435Z,1.40
2022-09-21T07:29:05.186Z,1.67
2022-09-21T07:31:32.049Z,1.63
2022-09-21T07:33:59.152Z,1.60
2022-09-21T07:36:25.785Z,1.27
2022-09-21T07:38:53.938Z,1.57
2022-09-21T07:41:21.130Z,1.50
2022-09-21T07:43:47.729Z,1.60
2022-09-21T07:46:15.240Z,1.40
2022-09-21T07:48:41.975Z,1.33
2022-09-21T07:51:11.121Z,1.40
2022-09-21T07:53:39.259Z,1.60
2022-09-21T07:56:08.614Z,1.40
2022-09-21T07:58:55.293Z,1.33
2022-09-21T08:01:22.625Z,1.47
2022-09-21T08:03:50.792Z,1.40
2022-09-21T08:06:18.167Z,1.50
2022-09-21T08:08:47.840Z,1.40
2022-09-21T08:11:19.779Z,1.10
2022-09-21T08:13:46.393Z,1.77
2022-09-21T08:16:12.975Z,1.50
2022-09-21T08:18:41.281Z,1.40
2022-09-21T08:21:12.048Z,1.20
2022-09-21T08:23:42.772Z,1.70
2022-09-21T08:26:16.448Z,1.30
2022-09-21T08:28:43.790Z,1.20
2022-09-21T08:31:10.843Z,1.30
2022-09-21T08:33:37.494Z,1.03
2022-09-21T08:36:04.365Z,1.23
2022-09-21T08:38:35.562Z,1.70
2022-09-21T08:41:04.781Z,1.23
2022-09-21T08:43:40.836Z,1.30
2022-09-21T08:46:11.209Z,1.57
2022-09-21T08:48:42.390Z,1.40
2022-09-21T08:51:11.522Z,1.30
2022-09-21T08:53:46.175Z,1.20
2022-09-21T08:56:14.273Z,1.27
2022-09-21T08:58:41.288Z,1.40
2022-09-21T09:01:21.648Z,1.00
2022-09-21T09:04:05.643Z,1.30
2022-09-21T09:06:47.461Z,1.10
2022-09-21T09:09:20.029Z,1.00
2022-09-21T09:11:58.726Z,1.00
2022-09-21T09:15:02.221Z,1.03
2022-09-21T09:17:46.421Z,1.20
2022-09-21T09:20:18.779Z,1.20
2022-09-21T09:22:52.746Z,1.20
2022-09-21T09:25:22.086Z,1.50
2022-09-21T09:27:57.190Z,1.67
2022-09-21T09:30:26.205Z,1.37
2022-09-21T09:32:55.678Z,1.50
2022-09-21T09:35:33.117Z,1.40
2022-09-21T09:38:14.701Z,1.37
2022-09-21T09:40:48.709Z,1.40
2022-09-21T09:43:38.498Z,1.30
2022-09-21T09:46:13.225Z,1.20
2022-09-21T09:48:53.900Z,1.23
2022-09-21T09:51:21.033Z,1.50
2022-09-21T09:53:47.602Z,1.10
2022-09-21T09:56:14.858Z,1.40
2022-09-21T09:58:50.870Z,1.53
2022-09-21T10:01:38.252Z,1.40
2022-09-21T10:04:10.123Z,1.30
2022-09-21T10:06:38.619Z,1.20
2022-09-21T10:09:31.314Z,1.13
2022-09-21T10:12:08.128Z,1.40
2022-09-21T10:14:36.753Z,1.10
2022-09-21T10:17:07.938Z,1.10
2022-09-21T10:19:34.783Z,1.50
2022-09-21T10:22:02.682Z,1.30
2022-09-21T10:24:33.403Z,1.10
2022-09-21T10:27:12.392Z,1.30
2022-09-21T10:29:47.691Z,0.93
2022-09-21T10:32:15.089Z,1.10
2022-09-21T10:35:00.891Z,1.30
2022-09-21T10:37:30.856Z,1.30
2022-09-21T10:39:57.657Z,1.33
2022-09-21T10:42:24.215Z,1.30
2022-09-21T10:45:07.194Z,1.20
2022-09-21T10:47:40.861Z,1.07
2022-09-21T10:50:29.043Z,0.90
2022-09-21T10:53:00.568Z,1.10
2022-09-21T10:55:28.670Z,1.10
2022-09-21T10:57:55.476Z,1.30
2022-09-21T11:00:24.711Z,1.20
2022-09-21T11:02:51.920Z,1.10
2022-09-21T11:05:34.315Z,1.37
2022-09-21T11:08:20.448Z,1.33
2022-09-21T11:11:14.629Z,1.50
2022-09-21T11:13:48.097Z,1.50
2022-09-21T11:16:35.164Z,1.10
2022-09-21T11:19:13.286Z,1.03
2022-09-21T11:21:46.899Z,1.10
2022-09-21T11:24:20.028Z,1.10
2022-09-21T11:27:14.477Z,1.00
2022-09-21T11:30:11.282Z,0.80
2022-09-21T11:32:41.374Z,1.10
2022-09-21T11:35:27.588Z,1.27
2022-09-21T11:38:13.425Z,0.90
2022-09-21T11:40:55.833Z,1.10
2022-09-21T11:43:34.344Z,1.10
2022-09-21T11:46:01.488Z,1.00
2022-09-21T11:48:44.675Z,0.93
2022-09-21T11:51:24.114Z,0.87
2022-09-21T11:54:15.447Z,0.80
2022-09-21T11:56:56.451Z,0.90
2022-09-21T11:59:29.877Z,0.80
2022-09-21T12:02:02.629Z,0.83
2022-09-21T12:04:39.409Z,0.90
2022-09-21T12:07:30.230Z,0.90
2022-09-21T12:10:18.745Z,1.10
2022-09-21T12:13:17.399Z,0.83
2022-09-21T12:16:06.259Z,0.80
2022-09-21T12:18:42.546Z,0.73
2022-09-21T12:21:36.352Z,0.70
2022-09-21T12:24:15.297Z,0.70
2022-09-21T12:26:50.435Z,0.60
2022-09-21T12:29:26.726Z,0.60
2022-09-21T12:32:05.667Z,0.67
2022-09-21T12:34:42.040Z,0.90
2022-09-21T12:37:36.198Z,0.70
2022-09-21T12:40:07.067Z,0.60
2022-09-21T12:42:50.073Z,0.70
2022-09-21T12:45:21.250Z,0.60
2022-09-21T12:48:06.628Z,0.63
2022-09-21T12:50:50.253Z,0.60
2022-09-21T12:53:22.094Z,0.60
2022-09-21T12:56:05.439Z,0.53
2022-09-21T12:58:53.869Z,0.63
2022-09-21T13:01:30.653Z,0.67
2022-09-21T13:04:09.614Z,0.73
2022-09-21T13:06:54.862Z,0.70
2022-09-21T13:09:22.769Z,0.77
2022-09-21T13:12:34.595Z,0.87
2022-09-21T13:15:13.726Z,0.60
2022-09-21T13:17:40.973Z,0.80
2022-09-21T13:20:17.185Z,0.83
2022-09-21T13:22:45.163Z,0.80
2022-09-21T13:25:17.793Z,1.10
2022-09-21T13:28:09.053Z,0.90
2022-09-21T13:30:41.495Z,0.80
2022-09-21T13:33:20.253Z,0.80
2022-09-21T13:36:05.122Z,0.77
2022-09-21T13:38:58.480Z,0.60
2022-09-21T13:41:45.499Z,0.63
2022-09-21T13:44:42.670Z,0.77
2022-09-21T13:47:11.954Z,0.63
2022-09-21T13:49:51.132Z,0.63
2022-09-21T13:52:26.656Z,0.60
2022-09-21T13:55:05.844Z,0.80
2022-09-21T13:57:40.132Z,0.70
2022-09-21T14:00:29.688Z,0.80
2022-09-21T14:03:04.357Z,1.03
2022-09-21T14:05:45.943Z,0.90
2022-09-21T14:08:15.584Z,0.90
2022-09-21T14:11:02.580Z,0.90
2022-09-21T14:13:36.923Z,0.90
2022-09-21T14:16:45.753Z,0.90
2022-09-21T14:19:18.082Z,0.90
2022-09-21T14:22:07.744Z,1.00
2022-09-21T14:24:43.662Z,0.90
2022-09-21T14:27:32.435Z,1.10
2022-09-21T14:30:07.135Z,1.00
2022-09-21T14:32:39.432Z,1.00
2022-09-21T14:35:11.455Z,1.00
2022-09-21T14:37:41.292Z,1.00
2022-09-21T14:40:31.251Z,0.90
2022-09-21T14:43:00.557Z,0.70
2022-09-21T14:45:58.090Z,0.80
2022-09-21T14:48:30.434Z,1.00
2022-09-21T14:51:02.209Z,1.10
2022-09-21T14:54:19.636Z,1.00
2022-09-21T14:56:55.541Z,0.90
2022-09-21T14:59:35.734Z,1.57
2022-09-21T15:02:23.559Z,1.00
2022-09-21T15:04:56.095Z,1.40
2022-09-21T15:07:55.991Z,1.10
2022-09-21T15:10:56.172Z,1.00
2022-09-21T15:13:49.473Z,1.00
2022-09-21T15:16:25.769Z,0.90
2022-09-21T15:19:08.577Z,0.90
2022-09-21T15:21:35.622Z,0.80
2022-09-21T15:24:16.872Z,0.60
2022-09-21T15:26:43.750Z,0.80
2022-09-21T15:29:21.593Z,0.90
2022-09-21T15:31:48.549Z,0.90
2022-09-21T15:34:15.403Z,0.90
2022-09-21T15:36:43.617Z,1.00
2022-09-21T15:39:30.873Z,0.90
2022-09-21T15:42:09.608Z,0.80
2022-09-21T15:44:38.351Z,0.83
2022-09-21T15:47:12.541Z,0.87
2022-09-21T15:49:39.648Z,1.00
2022-09-21T15:52:13.977Z,1.00
2022-09-21T15:54:48.982Z,0.87
2022-09-21T15:57:39.165Z,1.07
2022-09-21T16:00:21.391Z,0.90
2022-09-21T16:03:07.420Z,1.23
2022-09-21T16:05:45.955Z,1.00
2022-09-21T16:08:33.838Z,1.10
2022-09-21T16:11:28.993Z,1.00
2022-09-21T16:14:34.613Z,1.10
2022-09-21T16:17:04.333Z,1.10
2022-09-21T16:19:42.157Z,0.90
2022-09-21T16:22:13.898Z,1.20
2022-09-21T16:24:52.736Z,1.10
2022-09-21T16:27:21.114Z,1.00
2022-09-21T16:29:49.758Z,1.20
2022-09-21T16:32:20.800Z,1.17
2022-09-21T16:34:48.704Z,1.03
2022-09-21T16:37:28.724Z,1.10
2022-09-21T16:39:57.207Z,1.20
2022-09-21T16:42:27.877Z,1.17
2022-09-21T16:44:55.325Z,1.10
2022-09-21T16:47:25.106Z,1.20
2022-09-21T16:49:55.330Z,1.20
2022-09-21T16:52:25.281Z,1.17
2022-09-21T16:54:52.001Z,1.20
2022-09-21T16:57:18.872Z,1.20
2022-09-21T16:59:45.471Z,1.27
2022-09-21T17:02:14.091Z,1.30
2022-09-21T17:04:41.352Z,1.30
2022-09-21T17:07:11.193Z,1.20
2022-09-21T17:09:39.417Z,1.20
2022-09-21T17:12:07.941Z,1.20
2022-09-21T17:14:35.844Z,1.27
2022-09-21T17:17:17.190Z,2.37
2022-09-21T17:19:46.414Z,1.70
2022-09-21T17:22:17.255Z,1.30
2022-09-21T17:24:51.173Z,1.67
2022-09-21T17:27:21.261Z,2.50
2022-09-21T17:29:49.501Z,1.90
2022-09-21T17:32:21.851Z,1.70
2022-09-21T17:34:58.784Z,1.67
2022-09-21T17:37:25.623Z,1.43
2022-09-21T17:39:53.642Z,1.87
2022-09-21T17:42:23.011Z,2.40
2022-09-21T17:44:49.492Z,1.80
2022-09-21T17:47:24.758Z,2.27
2022-09-21T17:49:51.633Z,2.50
2022-09-21T17:52:38.914Z,1.80
2022-09-21T17:55:10.268Z,3.13
2022-09-21T17:57:52.207Z,3.20
2022-09-21T18:00:41.340Z,3.53
2022-09-21T18:03:42.553Z,2.90
2022-09-21T18:06:09.866Z,3.53
2022-09-21T18:08:38.383Z,2.50
2022-09-21T18:11:24.785Z,3.20
2022-09-21T18:14:01.601Z,3.80
2022-09-21T18:16:35.452Z,3.40
2022-09-21T18:19:24.568Z,3.20
2022-09-21T18:21:57.395Z,3.00
2022-09-21T18:24:31.025Z,2.00
2022-09-21T18:26:58.616Z,2.07
2022-09-21T18:29:41.635Z,2.20
2022-09-21T18:32:16.824Z,2.20
2022-09-21T18:35:08.626Z,2.50
2022-09-21T18:37:51.625Z,2.00
2022-09-21T18:40:28.849Z,1.50
2022-09-21T18:43:06.170Z,2.10
2022-09-21T18:45:53.739Z,1.80
2022-09-21T18:48:26.089Z,1.60
2022-09-21T18:51:14.137Z,2.10
2022-09-21T18:53:56.428Z,2.00
2022-09-21T18:56:24.842Z,1.20
2022-09-21T18:58:51.804Z,1.10
2022-09-21T19:01:21.807Z,1.30
2022-09-21T19:03:49.728Z,1.10
2022-09-21T19:06:42.720Z,1.40
2022-09-21T19:09:41.866Z,1.60
2022-09-21T19:12:14.409Z,2.67
2022-09-21T19:14:54.154Z,1.40
2022-09-21T19:17:32.420Z,1.40
2022-09-21T19:20:13.919Z,1.80
2022-09-21T19:22:59.141Z,1.30
2022-09-21T19:25:34.107Z,1.90
2022-09-21T19:28:05.242Z,1.97
2022-09-21T19:30:32.200Z,1.33
2022-09-21T19:33:00.022Z,1.30
2022-09-21T19:35:31.395Z,1.40
2022-09-21T19:38:01.437Z,1.30
2022-09-21T19:40:37.750Z,1.10
2022-09-21T19:43:22.670Z,1.10
2022-09-21T19:46:11.552Z,1.20
2022-09-21T19:48:52.162Z,1.73
2022-09-21T19:51:34.491Z,1.20
2022-09-21T19:54:20.286Z,1.27
2022-09-21T19:57:08.563Z,1.20
2022-09-21T19:59:44.322Z,1.23
2022-09-21T20:02:33.459Z,1.37
2022-09-21T20:05:08.723Z,1.20
2022-09-21T20:07:44.182Z,1.10
2022-09-21T20:10:24.068Z,1.13
2022-09-21T20:13:22.037Z,1.20
2022-09-21T20:15:52.484Z,1.00
2022-09-21T20:18:21.852Z,1.23
2022-09-21T20:20:48.495Z,1.30
2022-09-21T20:23:15.206Z,1.30
2022-09-21T20:25:56.877Z,1.10
2022-09-21T20:28:24.188Z,1.23
2022-09-21T20:30:50.844Z,1.20
2022-09-21T20:33:22.742Z,1.40
2022-09-21T20:35:50.382Z,1.33
2022-09-21T20:38:17.927Z,1.30
2022-09-21T20:40:45.245Z,1.37
2022-09-21T20:43:12.070Z,1.40
2022-09-21T20:45:40.821Z,1.27
2022-09-21T20:48:14.490Z,1.30
2022-09-21T20:50:46.774Z,1.47
2022-09-21T20:53:13.512Z,1.10
2022-09-21T20:55:41.080Z,1.23
2022-09-21T20:58:11.434Z,1.30
2022-09-21T21:00:38.100Z,1.20
2022-09-21T21:03:05.269Z,1.60
2022-09-21T21:05:32.771Z,1.60
2022-09-21T21:07:59.354Z,1.47
2022-09-21T21:10:25.960Z,1.50
2022-09-21T21:12:52.562Z,1.70
2022-09-21T21:15:19.135Z,1.20
2022-09-21T21:17:47.195Z,1.40
2022-09-21T21:20:16.293Z,1.17
2022-09-21T21:22:44.346Z,1.30
2022-09-21T21:25:11.275Z,1.30
2022-09-21T21:27:38.003Z,1.60
2022-09-21T21:30:05.546Z,1.63
2022-09-21T21:32:32.547Z,1.50
2022-09-21T21:34:59.188Z,1.80
2022-09-21T21:37:26.549Z,2.07
2022-09-21T21:39:53.822Z,1.50
2022-09-21T21:42:21.016Z,1.67
2022-09-21T21:44:48.563Z,1.90
2022-09-21T21:47:38.316Z,1.80
2022-09-21T21:50:01.781Z,1.73
2022-09-21T21:52:28.379Z,1.70
2022-09-21T21:54:55.019Z,1.70
2022-09-21T21:57:21.550Z,1.73
2022-09-21T21:59:48.296Z,1.50
2022-09-21T22:02:15.448Z,1.70
2022-09-21T22:04:42.237Z,1.50
2022-09-21T22:07:08.775Z,1.70
2022-09-21T22:09:35.430Z,1.73
2022-09-21T22:12:03.584Z,1.63
2022-09-21T22:14:30.346Z,1.80
2022-09-21T22:16:59.185Z,1.90
2022-09-21T22:19:26.049Z,1.70
2022-09-21T22:21:54.438Z,1.80
2022-09-21T22:24:21.675Z,1.97
2022-09-21T22:26:48.689Z,2.10
2022-09-21T22:29:17.141Z,2.00
2022-09-21T22:31:49.824Z,2.10
2022-09-21T22:34:16.788Z,2.40
2022-09-21T22:36:43.956Z,1.90
2022-09-21T22:39:11.538Z,2.07
2022-09-21T22:41:39.974Z,1.80
2022-09-21T22:44:07.201Z,1.83
2022-09-21T22:46:34.427Z,1.77
2022-09-21T22:49:01.376Z,1.93
2022-09-21T22:51:28.620Z,2.27
2022-09-21T22:53:55.428Z,2.50
2022-09-21T22:56:24.462Z,2.03
2022-09-21T22:58:53.163Z,2.10
2022-09-21T23:01:26.377Z,1.83
2022-09-21T23:03:55.481Z,1.80
2022-09-21T23:06:23.470Z,2.13
2022-09-21T23:08:50.804Z,2.10
2022-09-21T23:11:21.837Z,1.93
2022-09-21T23:13:49.113Z,2.10
2022-09-21T23:16:16.898Z,1.90
2022-09-21T23:18:44.214Z,1.90
2022-09-21T23:21:14.110Z,2.00
2022-09-21T23:23:41.394Z,1.90
2022-09-21T23:26:34.920Z,2.60
2022-09-21T23:29:03.804Z,2.33
2022-09-21T23:31:31.810Z,2.13
2022-09-21T23:34:00.586Z,2.20
2022-09-21T23:36:29.278Z,2.23
2022-09-21T23:38:56.525Z,2.17
2022-09-21T23:41:34.151Z,3.30
2022-09-21T23:44:01.581Z,4.83
2022-09-21T23:46:32.835Z,4.90
2022-09-21T23:49:00.502Z,4.90
2022-09-21T23:51:27.574Z,4.40
2022-09-21T23:53:54.182Z,4.13
2022-09-21T23:56:22.671Z,4.23
2022-09-21T23:58:49.465Z,3.50
